Middletown, Vermont
Current Conditions -  °F | °C
As of 8:54 PM on Saturday 20 Dec 2014 (Local Time) from KVSF Reporting Station
Overcast Overcast  
Wind Chill: 24°   Ceiling: 3300
Heat Index: 24°   Visibility: 8mi
Dew Point: 19°   Wind: 0mph
Humidity: 81%   Direction: NA
Pressure: 30.3"   Gusts: NA
Location:  43.2811°N, 72.6352°W
Report Text: KVSF 210154Z AUTO 00000KT 8SM OVC033 M04/M07 A3030 RMK AO2 SLP271 T10441072 TSNO
Loading
Personal Weather Stations






























Interactive Weather Map New forecast layout! Learn more

10-Day Weather Forecast

Advertisements
Track Severe Weather on mobile